Time;durP1;ratioP1;P1;durP2;ratioP2;P2;SDS_P1;SDS_P2;PMS_P1;PMS_P2;Temp;Humidity;BMP_temperature;BMP_pressure;BME280_temperature;BME280_humidity;BME280_pressure;Samples;Min_cycle;Max_cycle;Signal;HPM_P1;HPM_P2
2021/08/12 00:01:19;;;;;;;;;0.00;0.00;;;;;22.08;56.22;101569.00;6088075;23;45832;-84
2021/08/12 00:03:45;;;;;;;;;1.00;1.00;;;;;22.06;56.15;101579.66;6086388;23;45754;-78
2021/08/12 00:06:11;;;;;;;;;0.50;0.50;;;;;21.90;55.85;101557.97;6088302;23;45567;-80
2021/08/12 00:08:36;;;;;;;;;1.25;1.25;;;;;21.86;56.69;101554.53;6089726;23;45248;-77
2021/08/12 00:11:01;;;;;;;;;0.00;0.00;;;;;21.92;55.68;101566.75;6088953;23;52833;-78
2021/08/12 00:13:26;;;;;;;;;0.00;0.00;;;;;21.76;56.18;101548.59;6089276;23;45439;-78
2021/08/12 00:15:52;;;;;;;;;0.00;0.00;;;;;21.56;56.73;101514.63;6088504;23;51395;-78
2021/08/12 00:18:17;;;;;;;;;0.75;0.75;;;;;21.58;56.93;101528.72;6089179;23;45708;-79
2021/08/12 00:20:43;;;;;;;;;1.25;1.00;;;;;21.55;56.57;101530.56;6088522;23;45616;-78
2021/08/12 00:23:08;;;;;;;;;1.00;0.00;;;;;21.65;56.71;101559.44;6089374;23;45402;-79
2021/08/12 00:25:33;;;;;;;;;0.00;0.00;;;;;21.66;56.88;101555.00;6088724;23;45455;-80
2021/08/12 00:27:59;;;;;;;;;1.00;1.00;;;;;21.62;56.59;101551.56;6089286;23;45399;-79
2021/08/12 00:30:24;;;;;;;;;0.00;0.00;;;;;21.52;57.03;101547.41;6088767;23;46662;-79
2021/08/12 00:32:49;;;;;;;;;2.00;1.00;;;;;21.23;57.25;101493.38;6086152;23;46027;-79
2021/08/12 00:35:15;;;;;;;;;2.00;0.00;;;;;21.19;57.44;101483.78;6088166;23;45344;-80
2021/08/12 00:37:41;;;;;;;;;2.00;2.00;;;;;21.55;57.72;101552.63;6088493;23;45313;-78
2021/08/12 00:40:06;;;;;;;;;3.50;1.00;;;;;21.52;57.71;101547.41;6088274;23;45364;-79
2021/08/12 00:42:32;;;;;;;;;0.75;0.75;;;;;21.32;58.04;101517.00;6088876;23;45341;-80
2021/08/12 00:44:57;;;;;;;;;0.25;0.25;;;;;21.46;57.63;101548.44;6088405;23;45432;-79
2021/08/12 00:47:23;;;;;;;;;0.00;0.00;;;;;21.44;57.72;101547.56;6089176;23;45325;-78
2021/08/12 00:49:48;;;;;;;;;0.25;0.00;;;;;21.20;57.95;101507.56;6088326;23;45324;-79
2021/08/12 00:52:14;;;;;;;;;1.00;0.00;;;;;21.31;57.27;101528.47;6089022;23;45397;-79
2021/08/12 00:54:40;;;;;;;;;2.00;0.75;;;;;21.44;57.85;101544.94;6088971;23;45309;-80
2021/08/12 00:57:06;;;;;;;;;1.00;0.00;;;;;21.22;57.55;101500.44;6089250;23;45166;-79
2021/08/12 00:59:39;;;;;;;;;0.00;0.00;;;;;21.29;57.62;101502.94;6088212;23;46567;-79
2021/08/12 01:02:09;;;;;;;;;0.50;0.50;;;;;21.01;57.51;101473.56;6088192;23;45234;-79
2021/08/12 01:04:36;;;;;;;;;1.00;0.00;;;;;21.33;57.94;101526.69;6088459;23;45395;-80
2021/08/12 01:07:08;;;;;;;;;0.00;0.00;;;;;21.28;57.64;101517.94;6088857;23;45359;-79
2021/08/12 01:09:58;;;;;;;;;0.00;0.00;;;;;21.16;57.63;101505.03;6088459;23;46306;-78
2021/08/12 01:12:32;;;;;;;;;1.00;1.00;;;;;21.29;58.05;101529.44;6088244;23;45317;-79
2021/08/12 01:15:03;;;;;;;;;1.00;1.00;;;;;20.83;58.17;101450.19;6088692;23;45328;-79
2021/08/12 01:17:39;;;;;;;;;0.75;0.75;;;;;21.18;57.75;101519.97;6088432;23;45285;-79
2021/08/12 01:20:29;;;;;;;;;0.00;0.00;;;;;21.25;58.13;101537.44;6086478;23;48522;-78
2021/08/12 01:22:57;;;;;;;;;1.00;1.00;;;;;21.19;57.81;101534.94;6088250;23;45384;-78
2021/08/12 01:25:27;;;;;;;;;0.25;0.25;;;;;20.64;58.15;101466.44;6088373;23;45266;-79
2021/08/12 01:27:59;;;;;;;;;0.50;0.50;;;;;20.89;58.49;101542.66;6088845;23;45246;-78
2021/08/12 01:30:30;;;;;;;;;2.00;0.50;;;;;20.76;58.69;101520.84;6088522;23;46322;-80
2021/08/12 01:33:15;;;;;;;;;0.25;0.25;;;;;20.92;58.66;101542.59;6088216;23;45277;-79
2021/08/12 01:35:41;;;;;;;;;0.00;0.00;;;;;20.91;58.48;101548.78;6088205;23;45395;-80
2021/08/12 01:38:21;;;;;;;;;0.00;0.00;;;;;20.66;58.09;101508.72;6088715;23;45343;-78
2021/08/12 01:40:50;;;;;;;;;0.00;0.00;;;;;20.80;58.14;101527.84;6088177;23;45364;-80
2021/08/12 01:43:18;;;;;;;;;1.00;0.25;;;;;20.64;58.52;101499.06;6086907;23;46246;-79
2021/08/12 01:45:50;;;;;;;;;0.25;0.25;;;;;20.75;58.58;101541.16;6088664;23;45379;-80
2021/08/12 01:48:16;;;;;;;;;0.00;0.00;;;;;20.17;58.27;101450.69;6086768;23;45480;-81
2021/08/12 01:50:42;;;;;;;;;0.00;0.00;;;;;20.59;58.53;101535.34;6086460;23;47104;-80
2021/08/12 01:53:10;;;;;;;;;0.00;0.00;;;;;20.11;58.46;101465.78;6088990;23;45245;-78
2021/08/12 01:55:35;;;;;;;;;0.00;0.00;;;;;20.49;59.07;101541.72;6086897;23;45350;-80
2021/08/12 01:58:03;;;;;;;;;0.00;0.00;;;;;19.87;58.76;101430.09;6087967;23;45361;-79
2021/08/12 02:00:30;;;;;;;;;1.00;0.00;;;;;20.43;58.59;101518.91;6088057;23;45227;-79
2021/08/12 02:02:56;;;;;;;;;0.00;0.00;;;;;20.51;59.05;101540.78;6088225;23;45305;-79
2021/08/12 02:05:22;;;;;;;;;2.75;0.25;;;;;20.43;58.77;101542.69;6088087;23;45254;-80
2021/08/12 02:07:51;;;;;;;;;0.00;0.00;;;;;19.97;59.17;101468.66;6088913;23;45359;-80
2021/08/12 02:10:18;;;;;;;;;0.00;0.00;;;;;20.17;58.97;101503.56;6088453;23;45349;-79
2021/08/12 02:12:44;;;;;;;;;0.00;0.00;;;;;20.45;59.12;101540.91;6087814;23;45428;-79
2021/08/12 02:15:11;;;;;;;;;0.00;0.00;;;;;20.48;59.54;101540.84;6089899;23;45241;-79
2021/08/12 02:17:36;;;;;;;;;0.50;0.00;;;;;20.49;59.15;101545.22;6090632;23;45345;-78
2021/08/12 02:20:16;;;;;;;;;0.00;0.00;;;;;20.50;59.20;101544.34;6089887;23;48144;-79
2021/08/12 02:22:48;;;;;;;;;0.00;0.00;;;;;20.44;59.07;101523.31;6090213;23;45300;-79
2021/08/12 02:25:31;;;;;;;;;0.00;0.00;;;;;20.51;59.41;101534.59;6090609;23;45341;-78
2021/08/12 02:27:59;;;;;;;;;1.00;0.00;;;;;20.46;59.53;101526.75;6090627;23;45242;-77
2021/08/12 02:30:25;;;;;;;;;0.00;0.00;;;;;20.40;59.11;101515.47;6089573;23;45385;-78
2021/08/12 02:32:52;;;;;;;;;0.00;0.00;;;;;20.24;58.91;101513.09;6090140;23;45376;-78
2021/08/12 02:35:20;;;;;;;;;2.00;0.50;;;;;20.38;59.07;101526.94;6090315;23;45313;-78
2021/08/12 02:37:47;;;;;;;;;0.00;0.00;;;;;20.36;59.61;101525.22;6090234;23;45282;-78
2021/08/12 02:40:13;;;;;;;;;0.00;0.00;;;;;19.86;59.90;101468.00;6090011;23;45259;-79
2021/08/12 02:42:42;;;;;;;;;0.00;0.00;;;;;20.15;60.05;101545.03;6088140;23;45244;-78
2021/08/12 02:45:09;;;;;;;;;0.00;0.00;;;;;20.01;60.06;101546.16;6090026;23;45498;-79
2021/08/12 02:47:36;;;;;;;;;0.00;0.00;;;;;19.63;60.61;101500.97;6090435;23;45241;-80
2021/08/12 02:50:03;;;;;;;;;0.25;0.00;;;;;19.82;61.23;101548.22;6089705;23;45245;-79
2021/08/12 02:52:30;;;;;;;;;0.00;0.00;;;;;19.74;61.23;101558.91;6090279;23;45543;-78
2021/08/12 02:54:56;;;;;;;;;0.00;0.00;;;;;19.71;61.33;101543.09;6090291;23;45384;-79
2021/08/12 02:57:22;;;;;;;;;0.25;0.00;;;;;19.50;61.60;101510.88;6090335;23;45385;-79
2021/08/12 02:59:48;;;;;;;;;0.00;0.00;;;;;19.78;61.90;101546.53;6089342;23;46483;-79
2021/08/12 03:02:17;;;;;;;;;0.00;0.00;;;;;19.80;61.75;101536.78;6089739;23;45269;-79
2021/08/12 03:04:43;;;;;;;;;0.00;0.00;;;;;19.85;61.79;101545.53;6089861;23;45242;-78
2021/08/12 03:07:09;;;;;;;;;1.25;0.00;;;;;19.83;61.45;101540.25;6090463;23;45262;-79
2021/08/12 03:09:36;;;;;;;;;0.75;0.00;;;;;19.30;61.27;101466.34;6088927;23;45423;-79
2021/08/12 03:12:03;;;;;;;;;0.00;0.00;;;;;19.72;61.67;101537.78;6089188;23;45403;-79
2021/08/12 03:14:30;;;;;;;;;0.00;0.00;;;;;19.19;61.98;101440.09;6089861;23;45485;-80
2021/08/12 03:16:58;;;;;;;;;0.00;0.00;;;;;19.75;62.01;101531.56;6088328;23;45568;-79
2021/08/12 03:19:24;;;;;;;;;0.00;0.00;;;;;19.80;61.81;101528.88;6089479;23;46038;-80
2021/08/12 03:22:09;;;;;;;;;0.50;0.50;;;;;19.79;61.69;101524.47;6089511;23;45415;-79
2021/08/12 03:24:37;;;;;;;;;0.00;0.00;;;;;19.85;61.43;101529.66;6089661;23;45365;-79
2021/08/12 03:27:03;;;;;;;;;0.00;0.00;;;;;19.72;61.72;101537.78;6089763;23;45413;-79
2021/08/12 03:29:29;;;;;;;;;0.75;0.00;;;;;19.60;62.11;101528.31;6086953;23;47526;-77
2021/08/12 03:31:54;;;;;;;;;0.25;0.25;;;;;19.53;61.94;101529.31;6089551;23;45276;-78
2021/08/12 03:34:20;;;;;;;;;0.00;0.00;;;;;19.52;62.22;101535.50;6089900;23;45234;-78
2021/08/12 03:36:45;;;;;;;;;0.00;0.00;;;;;19.28;62.81;101521.78;6087878;23;45503;-79
2021/08/12 03:39:11;;;;;;;;;0.50;0.50;;;;;19.27;63.00;101533.25;6089074;23;46224;-79
2021/08/12 03:41:36;;;;;;;;;0.00;0.00;;;;;19.27;63.16;101533.25;6089362;23;45259;-79
2021/08/12 03:44:01;;;;;;;;;0.00;0.00;;;;;19.24;63.27;101534.13;6089346;23;45422;-78
2021/08/12 03:46:27;;;;;;;;;0.00;0.00;;;;;19.31;63.19;101529.66;6089887;23;45477;-79
2021/08/12 03:48:53;;;;;;;;;1.00;1.00;;;;;19.34;63.10;101532.25;6089076;23;46574;-79
2021/08/12 03:51:18;;;;;;;;;0.00;0.00;;;;;19.40;63.07;101523.38;6089060;23;45251;-77
2021/08/12 03:53:43;;;;;;;;;0.00;0.00;;;;;19.29;63.01;101507.69;6089229;23;45243;-79
2021/08/12 03:56:09;;;;;;;;;0.00;0.00;;;;;19.46;62.79;101515.34;6089655;23;45474;-77
2021/08/12 03:58:34;;;;;;;;;0.00;0.00;;;;;19.31;62.66;101483.91;6088871;23;46059;-77
2021/08/12 04:00:59;;;;;;;;;0.00;0.00;;;;;19.48;62.51;101515.31;6089312;23;45279;-79
2021/08/12 04:03:25;;;;;;;;;0.00;0.00;;;;;19.36;62.38;101493.50;6089336;23;50082;-77
2021/08/12 04:05:51;;;;;;;;;0.00;0.00;;;;;19.45;62.39;101494.25;6089524;23;45310;-77
2021/08/12 04:08:17;;;;;;;;;1.00;0.00;;;;;19.61;62.43;101516.84;6088802;23;45313;-78
2021/08/12 04:10:43;;;;;;;;;2.00;0.75;;;;;19.50;62.19;101503.84;6088851;23;45423;-79
2021/08/12 04:13:08;;;;;;;;;0.00;0.00;;;;;19.48;62.41;101494.22;6088618;23;45470;-77
2021/08/12 04:15:34;;;;;;;;;0.00;0.00;;;;;19.61;62.21;101516.00;6089400;23;45395;-77
2021/08/12 04:17:59;;;;;;;;;0.00;0.00;;;;;19.59;61.99;101507.22;6088896;23;46136;-78
2021/08/12 04:20:24;;;;;;;;;0.00;0.00;;;;;19.52;62.08;101495.00;6088734;23;45320;-78
2021/08/12 04:22:50;;;;;;;;;0.00;0.00;;;;;19.48;62.19;101489.78;6088811;23;45235;-78
2021/08/12 04:25:15;;;;;;;;;0.00;0.00;;;;;19.36;62.26;101475.00;6089275;23;45286;-78
2021/08/12 04:27:41;;;;;;;;;0.00;0.00;;;;;19.61;62.38;101510.72;6088456;23;45235;-78
2021/08/12 04:30:07;;;;;;;;;1.50;0.00;;;;;19.30;62.40;101455.78;6088914;23;45171;-78
2021/08/12 04:32:32;;;;;;;;;1.50;0.00;;;;;19.49;62.34;101488.00;6088382;23;45298;-78
2021/08/12 04:34:59;;;;;;;;;0.00;0.00;;;;;19.58;62.40;101495.78;6089031;23;45181;-78
2021/08/12 04:37:24;;;;;;;;;0.00;0.00;;;;;19.54;62.21;101496.72;6087853;23;47169;-78
2021/08/12 04:39:50;;;;;;;;;0.25;0.25;;;;;19.17;62.58;101442.78;6088211;23;45332;-78
2021/08/12 04:42:15;;;;;;;;;0.00;0.00;;;;;18.96;62.44;101410.53;6088844;23;45324;-78
2021/08/12 04:44:40;;;;;;;;;0.00;0.00;;;;;19.31;62.66;101463.66;6088843;23;45534;-78
2021/08/12 04:47:05;;;;;;;;;1.00;1.00;;;;;19.43;62.42;101489.00;6086488;23;58334;-78
2021/08/12 04:49:31;;;;;;;;;0.00;0.00;;;;;19.48;62.77;101502.13;6088361;23;45279;-79
2021/08/12 04:51:56;;;;;;;;;0.00;0.00;;;;;19.19;63.04;101446.25;6088159;23;45317;-78
2021/08/12 04:54:21;;;;;;;;;2.00;2.00;;;;;19.49;62.63;101503.84;6088219;23;45381;-78
2021/08/12 04:56:47;;;;;;;;;1.00;1.00;;;;;18.98;62.54;101423.69;6088233;23;45354;-79
2021/08/12 04:59:12;;;;;;;;;1.00;1.00;;;;;19.45;62.85;101503.03;6086650;23;46288;-79
2021/08/12 05:01:37;;;;;;;;;1.50;1.00;;;;;19.48;62.97;101508.25;6087998;23;46249;-78
2021/08/12 05:04:03;;;;;;;;;1.00;0.25;;;;;19.46;63.04;101499.50;6089209;23;45340;-78
2021/08/12 05:06:28;;;;;;;;;0.00;0.00;;;;;19.33;62.89;101479.47;6088520;23;46211;-78
2021/08/12 05:08:54;;;;;;;;;0.00;0.00;;;;;19.18;62.95;101464.75;6087789;23;51677;-78
2021/08/12 05:11:19;;;;;;;;;0.00;0.00;;;;;19.28;63.01;101487.47;6088615;23;45526;-79
2021/08/12 05:13:45;;;;;;;;;0.00;0.00;;;;;19.34;63.31;101500.56;6088145;23;47932;-78
2021/08/12 05:16:10;;;;;;;;;0.00;0.00;;;;;19.30;63.16;101496.25;6088008;23;46338;-78
2021/08/12 05:18:36;;;;;;;;;2.00;0.00;;;;;19.26;63.30;101493.69;6086384;23;45248;-79
2021/08/12 05:21:01;;;;;;;;;0.00;0.00;;;;;19.19;62.99;101472.66;6086037;23;45486;-79
2021/08/12 05:23:26;;;;;;;;;0.00;0.00;;;;;19.04;63.21;101442.06;6088085;23;45323;-79
2021/08/12 05:25:52;;;;;;;;;0.00;0.00;;;;;19.32;63.10;101506.75;6088366;23;45306;-78
2021/08/12 05:28:17;;;;;;;;;0.00;0.00;;;;;19.33;63.32;101504.09;6088252;23;45246;-79
2021/08/12 05:30:42;;;;;;;;;0.00;0.00;;;;;19.10;63.30;101471.03;6088152;23;45324;-78
2021/08/12 05:33:08;;;;;;;;;0.25;0.00;;;;;19.39;62.86;101513.72;6087831;23;45333;-78
2021/08/12 05:35:33;;;;;;;;;1.00;0.00;;;;;19.15;62.79;101481.53;6087611;23;45320;-78
2021/08/12 05:37:58;;;;;;;;;1.00;1.00;;;;;19.37;62.88;101526.06;6086257;23;46001;-79
2021/08/12 05:40:24;;;;;;;;;0.00;0.00;;;;;19.11;63.14;101482.44;6088871;23;45507;-79
2021/08/12 05:42:49;;;;;;;;;1.00;1.00;;;;;19.34;63.12;101516.41;6088242;23;45403;-78
2021/08/12 05:45:14;;;;;;;;;0.00;0.00;;;;;19.33;62.90;101519.94;6087927;23;45348;-78
2021/08/12 05:47:40;;;;;;;;;0.25;0.00;;;;;19.14;63.09;101474.47;6088294;23;45341;-79
2021/08/12 05:50:05;;;;;;;;;0.00;0.00;;;;;19.49;62.83;101525.88;6089727;23;45389;-78
2021/08/12 05:52:31;;;;;;;;;1.00;1.00;;;;;19.49;62.74;101525.88;6090374;23;45285;-78
2021/08/12 05:54:56;;;;;;;;;2.25;1.50;;;;;19.41;62.45;101506.63;6089826;23;46499;-78
2021/08/12 05:57:22;;;;;;;;;1.00;0.25;;;;;19.64;62.93;101521.22;6088006;23;45294;-79
2021/08/12 05:59:47;;;;;;;;;1.00;0.25;;;;;19.61;62.57;101513.34;6090348;23;45222;-78
2021/08/12 06:02:12;;;;;;;;;1.75;1.00;;;;;19.70;62.32;101534.31;6087963;23;45297;-79
2021/08/12 06:04:38;;;;;;;;;1.00;0.00;;;;;19.53;62.23;101524.03;6089338;23;45439;-77
2021/08/12 06:07:03;;;;;;;;;0.00;0.00;;;;;19.21;62.31;101477.91;6088777;23;53461;-78
2021/08/12 06:09:29;;;;;;;;;0.00;0.00;;;;;19.52;62.17;101519.66;6088199;23;45549;-78
2021/08/12 06:11:54;;;;;;;;;0.00;0.00;;;;;19.59;62.41;101528.34;6090208;23;45255;-79
2021/08/12 06:14:19;;;;;;;;;0.75;0.75;;;;;19.51;62.27;101533.75;6089731;23;45289;-79
2021/08/12 06:16:44;;;;;;;;;2.25;0.00;;;;;19.49;62.19;101511.78;6089810;23;45310;-79
2021/08/12 06:19:10;;;;;;;;;0.00;0.00;;;;;19.64;62.41;101513.28;6089947;23;45332;-79
2021/08/12 06:21:35;;;;;;;;;0.00;0.00;;;;;19.82;61.37;101521.78;6086915;23;45441;-78
2021/08/12 06:24:00;;;;;;;;;0.25;0.25;;;;;19.90;61.37;101524.31;6087204;23;47078;-78
2021/08/12 06:26:26;;;;;;;;;0.75;0.25;;;;;20.03;61.48;101527.63;6089285;23;51998;-78
2021/08/12 06:28:51;;;;;;;;;0.00;0.00;;;;;20.21;60.88;101523.78;6089360;23;45332;-77
2021/08/12 06:31:17;;;;;;;;;1.00;1.00;;;;;20.36;60.62;101518.16;6089329;23;45346;-77
2021/08/12 06:33:42;;;;;;;;;0.00;0.00;;;;;20.33;60.13;101504.13;6088042;23;46494;-77
2021/08/12 06:36:08;;;;;;;;;0.00;0.00;;;;;20.51;60.23;101524.91;6088017;23;45222;-76
2021/08/12 06:38:34;;;;;;;;;0.00;0.00;;;;;20.54;60.14;101521.31;6089133;23;45306;-77
2021/08/12 06:40:59;;;;;;;;;0.00;0.00;;;;;20.69;60.10;101532.47;6089316;23;45355;-76
2021/08/12 06:43:24;;;;;;;;;0.25;0.25;;;;;20.80;59.67;101527.84;6087546;23;45415;-77
2021/08/12 06:45:50;;;;;;;;;1.00;1.00;;;;;20.57;59.24;101481.59;6088344;23;45377;-77
2021/08/12 06:48:15;;;;;;;;;0.00;0.00;;;;;20.79;59.35;101510.22;6089083;23;45258;-76
2021/08/12 06:50:40;;;;;;;;;0.00;0.00;;;;;20.89;59.17;101526.78;6086587;23;45281;-76
2021/08/12 06:53:06;;;;;;;;;1.00;0.00;;;;;21.00;58.92;101539.78;6087806;23;45868;-77
2021/08/12 06:55:31;;;;;;;;;0.00;0.00;;;;;21.12;59.15;101539.50;6086808;23;45346;-77
2021/08/12 06:57:58;;;;;;;;;0.00;0.00;;;;;21.17;59.32;101541.19;6088463;23;45327;-77
2021/08/12 07:00:23;;;;;;;;;0.25;0.00;;;;;20.95;58.33;101524.00;6087416;23;45376;-77
2021/08/12 07:02:49;;;;;;;;;0.00;0.00;;;;;20.88;58.67;101530.31;6088751;23;45522;-76
2021/08/12 07:05:14;;;;;;;;;0.00;0.00;;;;;20.80;58.72;101532.25;6088206;23;45454;-76
2021/08/12 07:07:39;;;;;;;;;0.00;0.00;;;;;20.76;58.55;101532.31;6088581;23;45302;-76
2021/08/12 07:10:06;;;;;;;;;0.00;0.00;;;;;20.76;58.59;101529.69;6087115;23;45499;-76
2021/08/12 07:12:31;;;;;;;;;0.75;0.00;;;;;20.85;58.97;101533.00;6086618;23;48317;-77
2021/08/12 07:14:56;;;;;;;;;4.00;0.00;;;;;20.72;58.74;101504.19;6088748;23;45307;-76
2021/08/12 07:17:22;;;;;;;;;0.00;0.00;;;;;20.76;58.78;101510.28;6088312;23;45310;-76
2021/08/12 07:19:47;;;;;;;;;0.00;0.00;;;;;20.71;59.17;101515.69;6088817;23;45189;-77
2021/08/12 07:22:12;;;;;;;;;0.00;0.00;;;;;20.80;59.20;101517.28;6088014;23;45259;-76
2021/08/12 07:24:38;;;;;;;;;0.00;0.00;;;;;20.88;58.87;101520.59;6088042;23;53951;-76
2021/08/12 07:27:03;;;;;;;;;0.00;0.00;;;;;20.95;58.98;101517.84;6086312;23;51408;-76
2021/08/12 07:29:28;;;;;;;;;0.00;0.00;;;;;20.99;58.88;101522.16;6089225;23;45329;-75
2021/08/12 07:31:54;;;;;;;;;1.00;0.00;;;;;21.08;59.15;101526.38;6087624;23;49197;-76
2021/08/12 07:34:19;;;;;;;;;0.00;0.00;;;;;21.14;59.15;101519.16;6087919;23;45479;-76
2021/08/12 07:36:46;;;;;;;;;0.00;0.00;;;;;20.97;58.70;101465.75;6088219;23;45314;-76
2021/08/12 07:39:13;;;;;;;;;0.25;0.25;;;;;21.48;58.45;101530.72;6087776;23;45342;-79
2021/08/12 07:41:38;;;;;;;;;0.25;0.25;;;;;21.55;58.64;101517.31;6087622;23;45372;-76
2021/08/12 07:44:05;;;;;;;;;0.00;0.00;;;;;21.72;58.33;101525.72;6086578;23;45829;-76
2021/08/12 07:46:30;;;;;;;;;0.75;0.50;;;;;21.86;57.76;101519.19;6087308;23;45270;-76
2021/08/12 07:48:56;;;;;;;;;1.50;0.00;;;;;21.97;58.01;101524.22;6087834;23;45308;-75
2021/08/12 07:51:23;;;;;;;;;0.00;0.00;;;;;21.97;57.65;101522.44;6085969;23;47039;-74
2021/08/12 07:53:52;;;;;;;;;1.00;0.25;;;;;22.04;57.10;101523.13;6086709;23;45303;-74
2021/08/12 07:56:18;;;;;;;;;0.00;0.00;;;;;22.08;56.97;101518.63;6084930;23;45404;-74
2021/08/12 07:58:44;;;;;;;;;0.00;0.00;;;;;22.10;57.50;101522.09;6088430;23;45309;-73
2021/08/12 08:01:09;;;;;;;;;0.00;0.00;;;;;22.11;57.63;101523.84;6088120;23;45395;-73
2021/08/12 08:03:34;;;;;;;;;0.00;0.00;;;;;22.13;57.27;101528.19;6087519;23;45232;-73
2021/08/12 08:06:01;;;;;;;;;0.00;0.00;;;;;22.13;56.88;101516.72;6087860;23;45508;-74
2021/08/12 08:08:27;;;;;;;;;0.00;0.00;;;;;22.17;56.96;101507.75;6088469;23;45333;-75
2021/08/12 08:10:52;;;;;;;;;0.00;0.00;;;;;22.16;56.97;101500.72;6087745;23;46275;-74
2021/08/12 08:13:17;;;;;;;;;1.00;0.00;;;;;22.26;56.84;101507.50;6065860;23;48730;-75
2021/08/12 08:15:43;;;;;;;;;0.00;0.00;;;;;22.31;56.90;101509.16;6085057;23;53282;-74
2021/08/12 08:18:08;;;;;;;;;2.50;2.50;;;;;22.19;57.30;101491.81;6085765;23;45347;-76
2021/08/12 08:20:33;;;;;;;;;0.50;0.25;;;;;22.20;57.36;101497.06;6086272;23;45353;-76
2021/08/12 08:23:07;;;;;;;;;0.00;0.00;;;;;22.31;57.64;101504.72;6087484;23;45303;-76
2021/08/12 08:25:34;;;;;;;;;0.00;0.00;;;;;22.41;56.91;101494.72;6086680;23;45279;-76
2021/08/12 08:28:00;;;;;;;;;1.00;0.00;;;;;22.39;57.51;101483.28;6086798;23;45357;-76
2021/08/12 08:30:27;;;;;;;;;0.25;0.25;;;;;22.44;56.68;101493.75;6086059;23;46034;-77
2021/08/12 08:32:53;;;;;;;;;0.00;0.00;;;;;22.55;56.81;101509.34;6086473;23;45398;-76
2021/08/12 08:35:18;;;;;;;;;0.00;0.00;;;;;22.47;57.01;101483.94;6086409;23;45805;-79
2021/08/12 08:37:43;;;;;;;;;0.00;0.00;;;;;22.80;57.19;101517.47;6087128;23;45435;-76
2021/08/12 08:40:09;;;;;;;;;2.00;0.00;;;;;22.83;56.20;101503.25;6085706;23;48039;-78
2021/08/12 08:42:37;;;;;;;;;0.50;0.00;;;;;22.88;56.84;101502.19;6085458;23;45289;-79
2021/08/12 08:45:03;;;;;;;;;0.00;0.00;;;;;23.04;56.38;101499.91;6084375;23;45338;-76
2021/08/12 08:47:29;;;;;;;;;0.00;0.00;;;;;23.17;56.38;101502.16;6085634;23;45274;-76
2021/08/12 08:49:55;;;;;;;;;0.00;0.00;;;;;23.28;56.00;101491.22;6086557;23;45313;-80
2021/08/12 08:52:22;;;;;;;;;0.00;0.00;;;;;23.45;55.17;101497.75;6085876;23;45534;-76
2021/08/12 08:54:49;;;;;;;;;3.00;2.00;;;;;23.59;54.55;101506.16;6084748;23;45401;-77
2021/08/12 08:57:15;;;;;;;;;0.00;0.00;;;;;23.72;54.45;101511.91;6086936;23;45281;-78
2021/08/12 08:59:40;;;;;;;;;1.00;1.00;;;;;23.72;53.94;101517.22;6085635;23;46238;-75
2021/08/12 09:02:09;;;;;;;;;0.00;0.00;;;;;23.77;54.44;101520.56;6085180;23;45761;-74
2021/08/12 09:04:36;;;;;;;;;0.75;0.25;;;;;23.86;54.15;101514.06;6086985;23;45360;-77
2021/08/12 09:07:05;;;;;;;;;0.00;0.00;;;;;24.00;54.39;101526.00;6087157;23;45313;-75
2021/08/12 09:09:32;;;;;;;;;0.00;0.00;;;;;24.08;54.50;101518.63;6085854;23;46114;-76
2021/08/12 09:11:59;;;;;;;;;0.00;0.00;;;;;24.20;54.38;101517.34;6086374;23;45593;-76
2021/08/12 09:14:29;;;;;;;;;0.00;0.00;;;;;24.02;53.90;101481.63;6085823;23;45631;-75
2021/08/12 09:16:54;;;;;;;;;0.00;0.00;;;;;24.28;53.51;101528.56;6086519;23;45246;-75
2021/08/12 09:19:20;;;;;;;;;0.75;0.75;;;;;24.35;53.61;101531.84;6084474;23;45846;-76
2021/08/12 09:21:51;;;;;;;;;0.00;0.00;;;;;24.45;53.93;101532.38;6085236;23;45478;-74
2021/08/12 09:24:16;;;;;;;;;0.00;0.00;;;;;24.44;53.21;101527.97;6084969;23;45676;-75
2021/08/12 09:26:42;;;;;;;;;0.00;0.00;;;;;24.45;52.99;101518.22;6086327;23;45401;-76
2021/08/12 09:29:09;;;;;;;;;0.50;0.50;;;;;24.58;53.06;101529.25;6086472;23;45324;-75
2021/08/12 09:31:55;;;;;;;;;0.00;0.00;;;;;24.74;52.94;101521.56;6085331;23;45309;-78
2021/08/12 09:34:20;;;;;;;;;0.00;0.00;;;;;24.77;52.61;101519.63;6085453;23;45393;-76
2021/08/12 09:36:45;;;;;;;;;1.00;1.00;;;;;24.77;52.23;101516.97;6084301;23;45449;-76
2021/08/12 09:39:19;;;;;;;;;1.25;1.00;;;;;24.74;52.53;101517.09;6086360;23;45750;-76
2021/08/12 09:41:49;;;;;;;;;0.25;0.00;;;;;24.84;52.40;101530.06;6086380;23;45326;-76
2021/08/12 09:44:38;;;;;;;;;0.00;0.00;;;;;24.87;52.09;101528.16;6085654;23;45510;-77
2021/08/12 09:47:34;;;;;;;;;0.00;0.00;;;;;24.90;52.53;101513.88;6084868;23;45632;-74
2021/08/12 09:50:00;;;;;;;;;0.00;0.00;;;;;24.89;52.43;101528.09;6084952;23;45258;-74
2021/08/12 09:52:31;;;;;;;;;0.00;0.00;;;;;24.86;51.79;101510.41;6086816;23;45272;-76
2021/08/12 09:55:19;;;;;;;;;0.00;0.00;;;;;24.91;52.20;101504.94;6086497;23;45374;-75
2021/08/12 09:57:49;;;;;;;;;0.00;0.00;;;;;24.97;51.82;101511.81;6086335;23;45269;-73
2021/08/12 10:00:28;;;;;;;;;1.00;0.00;;;;;24.99;51.37;101513.47;6084957;23;46099;-79
2021/08/12 10:02:54;;;;;;;;;0.75;0.00;;;;;24.86;51.32;101498.88;6086721;23;45355;-77
2021/08/12 10:05:20;;;;;;;;;0.00;0.00;;;;;24.88;51.14;101511.25;6085218;23;45488;-78
2021/08/12 10:07:47;;;;;;;;;0.25;0.25;;;;;24.95;50.96;101503.88;6085506;23;45309;-76
2021/08/12 10:10:18;;;;;;;;;0.00;0.00;;;;;25.09;51.59;101499.81;6086311;23;46326;-81
2021/08/12 10:12:49;;;;;;;;;0.00;0.00;;;;;25.16;51.13;101502.16;6085906;23;45365;-78
2021/08/12 10:15:20;;;;;;;;;0.00;0.00;;;;;25.22;50.84;101500.16;6083398;23;45382;-78
2021/08/12 10:17:46;;;;;;;;;0.00;0.00;;;;;25.34;50.39;101510.31;6086078;23;45302;-76
2021/08/12 10:20:34;;;;;;;;;1.00;0.00;;;;;25.34;50.43;101485.47;6085952;23;45511;-81
2021/08/12 10:23:02;;;;;;;;;0.25;0.25;;;;;25.47;50.03;101501.78;6084988;23;45308;-79
2021/08/12 10:25:28;;;;;;;;;0.00;0.00;;;;;25.21;49.98;101456.69;6085389;23;45278;-86
2021/08/12 10:27:57;;;;;;;;;0.00;0.00;;;;;25.37;49.36;101490.66;6084392;23;45441;-76
2021/08/12 10:30:25;;;;;;;;;0.50;0.50;;;;;25.48;49.96;101501.72;6085648;23;45317;-77
2021/08/12 10:32:54;;;;;;;;;1.00;1.00;;;;;25.51;49.64;101501.59;6085976;23;45435;-75
2021/08/12 10:35:21;;;;;;;;;0.50;0.50;;;;;25.48;49.61;101487.56;6086635;23;45705;-74
2021/08/12 10:37:48;;;;;;;;;0.00;0.00;;;;;25.43;49.48;101493.06;6086441;23;45256;-74
2021/08/12 10:40:15;;;;;;;;;0.00;0.00;;;;;25.53;49.34;101498.88;6086802;23;45356;-75
2021/08/12 10:42:44;;;;;;;;;0.50;0.00;;;;;25.62;49.41;101484.31;6088068;23;45384;-76
2021/08/12 10:45:11;;;;;;;;;0.00;0.00;;;;;25.77;49.14;101491.66;6087000;23;45202;-75
2021/08/12 10:47:43;;;;;;;;;0.25;0.25;;;;;25.92;48.91;101487.44;6086197;23;45356;-76
2021/08/12 10:50:24;;;;;;;;;1.00;1.00;;;;;26.11;48.48;101491.06;6087448;23;45485;-75
2021/08/12 10:53:01;;;;;;;;;0.00;0.00;;;;;26.24;48.08;101489.56;6087933;23;45254;-75
2021/08/12 10:55:27;;;;;;;;;0.00;0.00;;;;;26.32;48.63;101497.25;6086547;23;45472;-76
2021/08/12 10:58:17;;;;;;;;;0.00;0.00;;;;;26.33;48.25;101496.31;6086880;23;45365;-77
2021/08/12 11:01:01;;;;;;;;;0.00;0.00;;;;;26.33;48.35;101498.13;6086851;23;46618;-74
2021/08/12 11:03:35;;;;;;;;;0.25;0.00;;;;;26.36;47.51;101487.28;6086922;23;45341;-75
2021/08/12 11:06:08;;;;;;;;;0.00;0.00;;;;;26.36;47.35;101490.84;6087233;23;45353;-75
2021/08/12 11:08:53;;;;;;;;;0.00;0.00;;;;;26.42;47.39;101489.69;6088834;23;45266;-75
2021/08/12 11:11:21;;;;;;;;;1.00;1.00;;;;;26.38;47.52;101494.31;6086881;23;46406;-75
2021/08/12 11:13:58;;;;;;;;;0.00;0.00;;;;;26.38;47.39;101488.09;6088133;23;45261;-75
2021/08/12 11:16:25;;;;;;;;;0.25;0.25;;;;;26.41;47.08;101488.84;6087552;23;45309;-76
2021/08/12 11:18:54;;;;;;;;;1.00;0.00;;;;;26.42;47.17;101489.69;6087387;23;45408;-76
2021/08/12 11:21:32;;;;;;;;;1.00;0.00;;;;;26.41;47.21;101485.28;6087917;23;45286;-75
2021/08/12 11:24:22;;;;;;;;;0.00;0.00;;;;;26.46;47.19;101483.25;6084712;23;45282;-74
2021/08/12 11:26:48;;;;;;;;;2.00;0.25;;;;;26.54;46.68;101477.56;6087657;23;45342;-75